Ashley, Louisiana
Current Conditions -  °F | °C
As of 5:53 AM on Saturday 01 Nov 2014 (Local Time) from KTVR Reporting Station
Clear Clear  
Wind Chill: 32°   Ceiling: Unl
Heat Index: 39°   Visibility: 10mi
Dew Point: 27°   Wind: 10mph
Humidity: 62%   Direction: 10°N
Pressure: 30.37"   Gusts: NA
Location:  32.3599°N, 91.2529°W
Report Text: KTVR 011053Z AUTO 01009KT 10SM CLR 04/M03 A3037 RMK AO2 SLP291 T00391028
Loading
Personal Weather Stations






























Interactive Weather Map
Tropical Storm Tracking
New forecast layout! Learn more

10-Day Weather Forecast

Advertisements
Track Severe Weather on mobile